sensor_id;sensor_type;location;lat;lon;timestamp;P1;durP1;ratioP1;P2;durP2;ratioP2
51292;SDS011;37377;45.186;9.778;2023-07-16T00:01:05;28.65;;;24.08;;
51292;SDS011;37377;45.186;9.778;2023-07-16T00:03:32;31.65;;;25.05;;
51292;SDS011;37377;45.186;9.778;2023-07-16T00:05:59;30.15;;;25.50;;
51292;SDS011;37377;45.186;9.778;2023-07-16T00:08:26;27.98;;;24.33;;
51292;SDS011;37377;45.186;9.778;2023-07-16T00:10:53;28.08;;;24.42;;
51292;SDS011;37377;45.186;9.778;2023-07-16T00:13:20;39.70;;;25.10;;
51292;SDS011;37377;45.186;9.778;2023-07-16T00:15:46;41.53;;;26.20;;
51292;SDS011;37377;45.186;9.778;2023-07-16T00:18:13;32.28;;;26.95;;
51292;SDS011;37377;45.186;9.778;2023-07-16T00:20:40;29.80;;;25.50;;
51292;SDS011;37377;45.186;9.778;2023-07-16T00:23:07;34.97;;;27.38;;
51292;SDS011;37377;45.186;9.778;2023-07-16T00:25:33;36.20;;;27.10;;
51292;SDS011;37377;45.186;9.778;2023-07-16T00:28:01;39.17;;;28.88;;
51292;SDS011;37377;45.186;9.778;2023-07-16T00:30:41;41.55;;;30.23;;
51292;SDS011;37377;45.186;9.778;2023-07-16T00:33:16;36.88;;;29.92;;
51292;SDS011;37377;45.186;9.778;2023-07-16T00:35:48;34.80;;;28.85;;
51292;SDS011;37377;45.186;9.778;2023-07-16T00:38:18;34.30;;;27.45;;
51292;SDS011;37377;45.186;9.778;2023-07-16T00:40:47;32.33;;;28.33;;
51292;SDS011;37377;45.186;9.778;2023-07-16T00:43:14;38.33;;;28.65;;
51292;SDS011;37377;45.186;9.778;2023-07-16T00:45:41;36.45;;;29.08;;
51292;SDS011;37377;45.186;9.778;2023-07-16T00:48:16;38.00;;;31.58;;
51292;SDS011;37377;45.186;9.778;2023-07-16T00:50:43;44.30;;;32.42;;
51292;SDS011;37377;45.186;9.778;2023-07-16T00:53:11;40.17;;;30.75;;
51292;SDS011;37377;45.186;9.778;2023-07-16T00:55:38;34.78;;;30.90;;
51292;SDS011;37377;45.186;9.778;2023-07-16T00:58:08;33.33;;;29.25;;
51292;SDS011;37377;45.186;9.778;2023-07-16T01:00:36;39.53;;;28.88;;
51292;SDS011;37377;45.186;9.778;2023-07-16T01:03:09;40.88;;;30.20;;
51292;SDS011;37377;45.186;9.778;2023-07-16T01:05:45;32.78;;;28.13;;
51292;SDS011;37377;45.186;9.778;2023-07-16T01:08:14;38.05;;;29.15;;
51292;SDS011;37377;45.186;9.778;2023-07-16T01:10:42;41.65;;;28.60;;
51292;SDS011;37377;45.186;9.778;2023-07-16T01:13:33;50.80;;;30.65;;
51292;SDS011;37377;45.186;9.778;2023-07-16T01:16:04;43.60;;;32.15;;
51292;SDS011;37377;45.186;9.778;2023-07-16T01:18:36;38.00;;;29.38;;
51292;SDS011;37377;45.186;9.778;2023-07-16T01:21:07;38.28;;;28.65;;
51292;SDS011;37377;45.186;9.778;2023-07-16T01:31:16;38.30;;;31.42;;
51292;SDS011;37377;45.186;9.778;2023-07-16T01:33:43;50.90;;;35.08;;
51292;SDS011;37377;45.186;9.778;2023-07-16T01:36:12;45.95;;;32.10;;
51292;SDS011;37377;45.186;9.778;2023-07-16T01:38:39;41.17;;;32.83;;
51292;SDS011;37377;45.186;9.778;2023-07-16T01:41:06;46.95;;;36.55;;
51292;SDS011;37377;45.186;9.778;2023-07-16T01:43:33;49.88;;;37.38;;
51292;SDS011;37377;45.186;9.778;2023-07-16T01:46:00;45.83;;;35.22;;
51292;SDS011;37377;45.186;9.778;2023-07-16T01:48:33;38.63;;;33.28;;
51292;SDS011;37377;45.186;9.778;2023-07-16T01:51:01;40.60;;;33.00;;
51292;SDS011;37377;45.186;9.778;2023-07-16T01:53:27;37.55;;;33.50;;
51292;SDS011;37377;45.186;9.778;2023-07-16T01:55:54;38.08;;;33.90;;
51292;SDS011;37377;45.186;9.778;2023-07-16T01:58:21;43.53;;;36.13;;
51292;SDS011;37377;45.186;9.778;2023-07-16T02:00:52;38.95;;;34.70;;
51292;SDS011;37377;45.186;9.778;2023-07-16T02:03:19;45.95;;;35.40;;
51292;SDS011;37377;45.186;9.778;2023-07-16T02:05:46;44.95;;;36.42;;
51292;SDS011;37377;45.186;9.778;2023-07-16T02:08:14;48.08;;;36.60;;
51292;SDS011;37377;45.186;9.778;2023-07-16T02:10:41;43.70;;;36.05;;
51292;SDS011;37377;45.186;9.778;2023-07-16T02:13:10;41.72;;;35.85;;
51292;SDS011;37377;45.186;9.778;2023-07-16T02:15:39;43.17;;;37.05;;
51292;SDS011;37377;45.186;9.778;2023-07-16T02:18:10;44.45;;;35.75;;
51292;SDS011;37377;45.186;9.778;2023-07-16T02:20:53;48.20;;;38.10;;
51292;SDS011;37377;45.186;9.778;2023-07-16T02:23:20;46.58;;;35.97;;
51292;SDS011;37377;45.186;9.778;2023-07-16T02:25:46;43.10;;;37.58;;
51292;SDS011;37377;45.186;9.778;2023-07-16T02:28:15;42.13;;;37.55;;
51292;SDS011;37377;45.186;9.778;2023-07-16T02:30:42;46.88;;;39.13;;
51292;SDS011;37377;45.186;9.778;2023-07-16T02:33:11;48.05;;;38.92;;
51292;SDS011;37377;45.186;9.778;2023-07-16T02:36:01;47.47;;;39.75;;
51292;SDS011;37377;45.186;9.778;2023-07-16T02:39:21;52.47;;;40.50;;
51292;SDS011;37377;45.186;9.778;2023-07-16T02:41:49;51.50;;;40.17;;
51292;SDS011;37377;45.186;9.778;2023-07-16T02:44:16;54.33;;;41.45;;
51292;SDS011;37377;45.186;9.778;2023-07-16T02:46:48;54.42;;;40.20;;
51292;SDS011;37377;45.186;9.778;2023-07-16T02:49:15;46.80;;;41.40;;
51292;SDS011;37377;45.186;9.778;2023-07-16T02:51:42;49.55;;;42.10;;
51292;SDS011;37377;45.186;9.778;2023-07-16T02:54:09;54.50;;;43.22;;
51292;SDS011;37377;45.186;9.778;2023-07-16T02:56:36;49.22;;;43.58;;
51292;SDS011;37377;45.186;9.778;2023-07-16T02:59:02;57.85;;;42.35;;
51292;SDS011;37377;45.186;9.778;2023-07-16T03:01:29;49.63;;;41.50;;
51292;SDS011;37377;45.186;9.778;2023-07-16T03:04:26;52.28;;;43.67;;
51292;SDS011;37377;45.186;9.778;2023-07-16T03:06:53;54.97;;;42.05;;
51292;SDS011;37377;45.186;9.778;2023-07-16T03:09:23;51.90;;;43.17;;
51292;SDS011;37377;45.186;9.778;2023-07-16T03:11:56;59.70;;;46.17;;
51292;SDS011;37377;45.186;9.778;2023-07-16T03:14:30;56.38;;;43.28;;
51292;SDS011;37377;45.186;9.778;2023-07-16T03:16:59;52.67;;;42.97;;
51292;SDS011;37377;45.186;9.778;2023-07-16T03:19:54;56.05;;;44.15;;
51292;SDS011;37377;45.186;9.778;2023-07-16T03:22:43;52.58;;;43.97;;
51292;SDS011;37377;45.186;9.778;2023-07-16T03:25:42;61.25;;;45.42;;
51292;SDS011;37377;45.186;9.778;2023-07-16T03:28:32;52.45;;;45.28;;
51292;SDS011;37377;45.186;9.778;2023-07-16T03:31:40;52.08;;;42.85;;
51292;SDS011;37377;45.186;9.778;2023-07-16T03:34:38;59.03;;;44.60;;
51292;SDS011;37377;45.186;9.778;2023-07-16T03:37:05;52.70;;;43.15;;
51292;SDS011;37377;45.186;9.778;2023-07-16T03:43:40;62.60;;;45.75;;
51292;SDS011;37377;45.186;9.778;2023-07-16T03:46:33;57.33;;;46.40;;
51292;SDS011;37377;45.186;9.778;2023-07-16T03:49:35;55.40;;;46.08;;
51292;SDS011;37377;45.186;9.778;2023-07-16T03:52:29;51.75;;;43.33;;
51292;SDS011;37377;45.186;9.778;2023-07-16T03:55:22;52.45;;;45.80;;
51292;SDS011;37377;45.186;9.778;2023-07-16T03:58:03;60.30;;;46.85;;
51292;SDS011;37377;45.186;9.778;2023-07-16T04:00:44;56.97;;;46.25;;
51292;SDS011;37377;45.186;9.778;2023-07-16T04:03:40;59.70;;;45.28;;
51292;SDS011;37377;45.186;9.778;2023-07-16T04:06:09;54.30;;;44.90;;
51292;SDS011;37377;45.186;9.778;2023-07-16T04:08:36;55.13;;;43.67;;
51292;SDS011;37377;45.186;9.778;2023-07-16T04:11:24;58.35;;;43.97;;
51292;SDS011;37377;45.186;9.778;2023-07-16T04:13:52;53.17;;;42.60;;
51292;SDS011;37377;45.186;9.778;2023-07-16T04:16:26;54.05;;;42.47;;
51292;SDS011;37377;45.186;9.778;2023-07-16T04:19:31;55.80;;;43.10;;
51292;SDS011;37377;45.186;9.778;2023-07-16T04:22:12;60.70;;;42.47;;
51292;SDS011;37377;45.186;9.778;2023-07-16T04:25:02;54.45;;;40.10;;
51292;SDS011;37377;45.186;9.778;2023-07-16T04:27:42;45.22;;;40.25;;
51292;SDS011;37377;45.186;9.778;2023-07-16T04:30:20;51.13;;;40.35;;
51292;SDS011;37377;45.186;9.778;2023-07-16T04:32:47;49.15;;;39.85;;
51292;SDS011;37377;45.186;9.778;2023-07-16T04:35:17;50.90;;;40.67;;
51292;SDS011;37377;45.186;9.778;2023-07-16T04:37:44;44.83;;;38.83;;
51292;SDS011;37377;45.186;9.778;2023-07-16T04:40:11;42.88;;;35.08;;
51292;SDS011;37377;45.186;9.778;2023-07-16T08:40:27;38.15;;;28.08;;
51292;SDS011;37377;45.186;9.778;2023-07-16T08:42:54;33.30;;;29.55;;
51292;SDS011;37377;45.186;9.778;2023-07-16T08:45:22;46.42;;;34.03;;
51292;SDS011;37377;45.186;9.778;2023-07-16T08:47:51;52.35;;;34.72;;
51292;SDS011;37377;45.186;9.778;2023-07-16T08:50:19;38.08;;;32.58;;
51292;SDS011;37377;45.186;9.778;2023-07-16T08:52:47;34.55;;;28.27;;
51292;SDS011;37377;45.186;9.778;2023-07-16T08:55:14;35.92;;;31.13;;
51292;SDS011;37377;45.186;9.778;2023-07-16T08:57:41;44.58;;;32.10;;
51292;SDS011;37377;45.186;9.778;2023-07-16T09:00:09;37.28;;;29.38;;
51292;SDS011;37377;45.186;9.778;2023-07-16T09:02:37;40.88;;;31.50;;
51292;SDS011;37377;45.186;9.778;2023-07-16T09:05:04;42.65;;;33.25;;
51292;SDS011;37377;45.186;9.778;2023-07-16T09:07:31;45.28;;;32.22;;
51292;SDS011;37377;45.186;9.778;2023-07-16T09:09:58;37.40;;;31.25;;
51292;SDS011;37377;45.186;9.778;2023-07-16T09:12:26;53.70;;;34.80;;
51292;SDS011;37377;45.186;9.778;2023-07-16T09:14:53;39.55;;;32.33;;
51292;SDS011;37377;45.186;9.778;2023-07-16T09:17:24;34.83;;;31.13;;
51292;SDS011;37377;45.186;9.778;2023-07-16T09:19:52;37.83;;;29.73;;
51292;SDS011;37377;45.186;9.778;2023-07-16T09:22:20;39.65;;;26.42;;
51292;SDS011;37377;45.186;9.778;2023-07-16T09:24:49;34.08;;;25.08;;
51292;SDS011;37377;45.186;9.778;2023-07-16T09:27:32;32.75;;;20.45;;
51292;SDS011;37377;45.186;9.778;2023-07-16T09:30:14;33.53;;;28.10;;
51292;SDS011;37377;45.186;9.778;2023-07-16T09:33:33;37.47;;;29.25;;
51292;SDS011;37377;45.186;9.778;2023-07-16T09:36:00;40.10;;;28.75;;
51292;SDS011;37377;45.186;9.778;2023-07-16T09:38:33;52.40;;;33.75;;
51292;SDS011;37377;45.186;9.778;2023-07-16T09:41:01;40.65;;;33.40;;
51292;SDS011;37377;45.186;9.778;2023-07-16T09:43:30;47.67;;;35.03;;
51292;SDS011;37377;45.186;9.778;2023-07-16T09:45:57;39.60;;;29.77;;
51292;SDS011;37377;45.186;9.778;2023-07-16T09:48:24;36.38;;;30.25;;
51292;SDS011;37377;45.186;9.778;2023-07-16T09:50:51;41.75;;;32.38;;
51292;SDS011;37377;45.186;9.778;2023-07-16T09:53:20;27.85;;;23.65;;
51292;SDS011;37377;45.186;9.778;2023-07-16T09:55:48;49.35;;;33.17;;
51292;SDS011;37377;45.186;9.778;2023-07-16T09:58:16;41.53;;;31.40;;
51292;SDS011;37377;45.186;9.778;2023-07-16T10:00:46;50.65;;;33.45;;
51292;SDS011;37377;45.186;9.778;2023-07-16T10:03:14;34.78;;;26.92;;
51292;SDS011;37377;45.186;9.778;2023-07-16T10:05:47;42.50;;;32.88;;
51292;SDS011;37377;45.186;9.778;2023-07-16T10:08:16;40.13;;;33.97;;
51292;SDS011;37377;45.186;9.778;2023-07-16T10:10:54;36.92;;;30.65;;
51292;SDS011;37377;45.186;9.778;2023-07-16T10:13:24;42.90;;;32.47;;
51292;SDS011;37377;45.186;9.778;2023-07-16T10:15:51;38.95;;;32.53;;
51292;SDS011;37377;45.186;9.778;2023-07-16T10:18:26;38.50;;;32.00;;
51292;SDS011;37377;45.186;9.778;2023-07-16T10:21:01;48.33;;;33.95;;
51292;SDS011;37377;45.186;9.778;2023-07-16T10:23:37;45.22;;;32.35;;
51292;SDS011;37377;45.186;9.778;2023-07-16T10:26:06;44.80;;;34.95;;
51292;SDS011;37377;45.186;9.778;2023-07-16T10:28:34;42.33;;;32.22;;
51292;SDS011;37377;45.186;9.778;2023-07-16T10:31:01;45.00;;;32.33;;
51292;SDS011;37377;45.186;9.778;2023-07-16T10:33:31;45.95;;;33.50;;
51292;SDS011;37377;45.186;9.778;2023-07-16T10:36:17;40.50;;;34.50;;
51292;SDS011;37377;45.186;9.778;2023-07-16T10:38:45;49.30;;;35.13;;
51292;SDS011;37377;45.186;9.778;2023-07-16T10:41:35;42.50;;;35.03;;
51292;SDS011;37377;45.186;9.778;2023-07-16T10:44:03;42.88;;;33.60;;
51292;SDS011;37377;45.186;9.778;2023-07-16T10:46:30;51.97;;;38.38;;
51292;SDS011;37377;45.186;9.778;2023-07-16T10:48:59;56.67;;;36.28;;
51292;SDS011;37377;45.186;9.778;2023-07-16T10:51:26;51.53;;;36.92;;
51292;SDS011;37377;45.186;9.778;2023-07-16T10:53:56;45.83;;;34.88;;
51292;SDS011;37377;45.186;9.778;2023-07-16T10:56:24;42.13;;;32.30;;
51292;SDS011;37377;45.186;9.778;2023-07-16T10:58:51;51.05;;;36.20;;
51292;SDS011;37377;45.186;9.778;2023-07-16T11:01:17;47.08;;;34.83;;
51292;SDS011;37377;45.186;9.778;2023-07-16T11:03:45;46.75;;;33.25;;
51292;SDS011;37377;45.186;9.778;2023-07-16T11:06:12;39.83;;;32.00;;
51292;SDS011;37377;45.186;9.778;2023-07-16T11:08:39;38.83;;;28.23;;
51292;SDS011;37377;45.186;9.778;2023-07-16T11:11:05;31.65;;;24.35;;
51292;SDS011;37377;45.186;9.778;2023-07-16T11:13:33;42.83;;;33.75;;
51292;SDS011;37377;45.186;9.778;2023-07-16T11:16:06;56.10;;;38.05;;
51292;SDS011;37377;45.186;9.778;2023-07-16T11:18:34;47.95;;;35.50;;
51292;SDS011;37377;45.186;9.778;2023-07-16T11:21:01;44.47;;;36.08;;
51292;SDS011;37377;45.186;9.778;2023-07-16T11:23:33;50.40;;;36.90;;
51292;SDS011;37377;45.186;9.778;2023-07-16T11:26:04;41.53;;;33.85;;
51292;SDS011;37377;45.186;9.778;2023-07-16T11:28:41;45.90;;;36.35;;
51292;SDS011;37377;45.186;9.778;2023-07-16T11:31:14;46.28;;;31.75;;
51292;SDS011;37377;45.186;9.778;2023-07-16T11:33:43;52.00;;;32.13;;
51292;SDS011;37377;45.186;9.778;2023-07-16T11:36:13;34.67;;;24.02;;
51292;SDS011;37377;45.186;9.778;2023-07-16T11:38:41;43.47;;;27.60;;
51292;SDS011;37377;45.186;9.778;2023-07-16T11:41:08;40.25;;;26.85;;
51292;SDS011;37377;45.186;9.778;2023-07-16T11:43:40;39.08;;;25.88;;
51292;SDS011;37377;45.186;9.778;2023-07-16T11:46:14;35.60;;;25.15;;
51292;SDS011;37377;45.186;9.778;2023-07-16T11:48:43;34.28;;;25.38;;
51292;SDS011;37377;45.186;9.778;2023-07-16T11:51:10;33.58;;;25.27;;
51292;SDS011;37377;45.186;9.778;2023-07-16T11:53:37;30.77;;;23.38;;
51292;SDS011;37377;45.186;9.778;2023-07-16T11:56:05;31.77;;;21.77;;
51292;SDS011;37377;45.186;9.778;2023-07-16T11:58:32;20.38;;;17.33;;
51292;SDS011;37377;45.186;9.778;2023-07-16T12:00:59;23.02;;;15.50;;
51292;SDS011;37377;45.186;9.778;2023-07-16T12:03:26;25.98;;;16.02;;
51292;SDS011;37377;45.186;9.778;2023-07-16T12:05:53;27.02;;;16.15;;
51292;SDS011;37377;45.186;9.778;2023-07-16T12:08:20;21.52;;;14.50;;
51292;SDS011;37377;45.186;9.778;2023-07-16T12:10:47;21.85;;;14.32;;
51292;SDS011;37377;45.186;9.778;2023-07-16T12:13:14;19.20;;;13.13;;
51292;SDS011;37377;45.186;9.778;2023-07-16T12:15:41;20.80;;;13.00;;
51292;SDS011;37377;45.186;9.778;2023-07-16T12:18:08;25.90;;;14.02;;
51292;SDS011;37377;45.186;9.778;2023-07-16T12:20:35;16.77;;;13.32;;
51292;SDS011;37377;45.186;9.778;2023-07-16T12:23:06;21.92;;;13.70;;
51292;SDS011;37377;45.186;9.778;2023-07-16T12:25:33;22.63;;;12.88;;
51292;SDS011;37377;45.186;9.778;2023-07-16T12:28:00;24.30;;;14.10;;
51292;SDS011;37377;45.186;9.778;2023-07-16T12:30:28;29.85;;;15.85;;
51292;SDS011;37377;45.186;9.778;2023-07-16T12:32:55;30.40;;;12.30;;
51292;SDS011;37377;45.186;9.778;2023-07-16T12:35:22;19.42;;;10.57;;
51292;SDS011;37377;45.186;9.778;2023-07-16T12:37:49;20.58;;;9.45;;
51292;SDS011;37377;45.186;9.778;2023-07-16T12:40:16;16.13;;;10.75;;
51292;SDS011;37377;45.186;9.778;2023-07-16T12:42:44;18.00;;;11.32;;
51292;SDS011;37377;45.186;9.778;2023-07-16T12:45:11;22.88;;;11.18;;
51292;SDS011;37377;45.186;9.778;2023-07-16T12:47:37;16.55;;;9.68;;
51292;SDS011;37377;45.186;9.778;2023-07-16T12:50:06;18.58;;;10.05;;
51292;SDS011;37377;45.186;9.778;2023-07-16T12:52:33;20.50;;;8.88;;
51292;SDS011;37377;45.186;9.778;2023-07-16T12:54:59;15.43;;;7.72;;
51292;SDS011;37377;45.186;9.778;2023-07-16T12:57:26;15.25;;;7.68;;
51292;SDS011;37377;45.186;9.778;2023-07-16T12:59:53;16.13;;;9.35;;
51292;SDS011;37377;45.186;9.778;2023-07-16T13:02:20;16.85;;;7.88;;
51292;SDS011;37377;45.186;9.778;2023-07-16T13:04:47;21.55;;;8.32;;
51292;SDS011;37377;45.186;9.778;2023-07-16T13:07:14;14.07;;;8.63;;
51292;SDS011;37377;45.186;9.778;2023-07-16T13:09:40;22.65;;;7.72;;
51292;SDS011;37377;45.186;9.778;2023-07-16T13:12:08;16.27;;;7.88;;
51292;SDS011;37377;45.186;9.778;2023-07-16T13:14:35;12.27;;;7.32;;
51292;SDS011;37377;45.186;9.778;2023-07-16T13:17:02;12.55;;;6.43;;
51292;SDS011;37377;45.186;9.778;2023-07-16T13:19:31;19.10;;;7.50;;
51292;SDS011;37377;45.186;9.778;2023-07-16T13:21:57;19.00;;;6.75;;
51292;SDS011;37377;45.186;9.778;2023-07-16T13:24:24;12.70;;;7.03;;
51292;SDS011;37377;45.186;9.778;2023-07-16T13:26:52;20.00;;;6.95;;
51292;SDS011;37377;45.186;9.778;2023-07-16T13:29:19;15.07;;;7.47;;
51292;SDS011;37377;45.186;9.778;2023-07-16T13:31:46;14.40;;;7.90;;
51292;SDS011;37377;45.186;9.778;2023-07-16T13:34:12;20.38;;;7.32;;
51292;SDS011;37377;45.186;9.778;2023-07-16T13:36:39;20.15;;;6.35;;
51292;SDS011;37377;45.186;9.778;2023-07-16T13:39:07;10.85;;;6.72;;
51292;SDS011;37377;45.186;9.778;2023-07-16T13:41:34;18.42;;;6.80;;
51292;SDS011;37377;45.186;9.778;2023-07-16T13:44:01;9.98;;;6.05;;
51292;SDS011;37377;45.186;9.778;2023-07-16T13:46:28;10.75;;;7.43;;
51292;SDS011;37377;45.186;9.778;2023-07-16T13:48:55;18.65;;;7.30;;
51292;SDS011;37377;45.186;9.778;2023-07-16T13:51:25;16.63;;;7.03;;
51292;SDS011;37377;45.186;9.778;2023-07-16T13:53:52;12.48;;;7.38;;
51292;SDS011;37377;45.186;9.778;2023-07-16T13:56:19;17.70;;;6.50;;
51292;SDS011;37377;45.186;9.778;2023-07-16T13:58:46;14.10;;;6.43;;
51292;SDS011;37377;45.186;9.778;2023-07-16T14:01:14;9.95;;;6.95;;
51292;SDS011;37377;45.186;9.778;2023-07-16T14:03:41;11.70;;;6.13;;
51292;SDS011;37377;45.186;9.778;2023-07-16T14:06:08;14.95;;;6.68;;
51292;SDS011;37377;45.186;9.778;2023-07-16T14:08:34;14.00;;;6.32;;
51292;SDS011;37377;45.186;9.778;2023-07-16T14:11:02;9.20;;;5.50;;
51292;SDS011;37377;45.186;9.778;2023-07-16T14:13:29;15.00;;;5.68;;
51292;SDS011;37377;45.186;9.778;2023-07-16T14:15:56;19.20;;;9.50;;
51292;SDS011;37377;45.186;9.778;2023-07-16T14:18:23;12.20;;;6.60;;
51292;SDS011;37377;45.186;9.778;2023-07-16T14:20:50;15.15;;;8.00;;
51292;SDS011;37377;45.186;9.778;2023-07-16T14:23:17;22.70;;;10.15;;
51292;SDS011;37377;45.186;9.778;2023-07-16T14:25:44;16.02;;;7.78;;
51292;SDS011;37377;45.186;9.778;2023-07-16T14:28:11;18.02;;;7.35;;
51292;SDS011;37377;45.186;9.778;2023-07-16T14:30:38;16.98;;;7.40;;
51292;SDS011;37377;45.186;9.778;2023-07-16T14:33:04;17.17;;;7.60;;
51292;SDS011;37377;45.186;9.778;2023-07-16T14:35:32;15.55;;;7.38;;
51292;SDS011;37377;45.186;9.778;2023-07-16T14:38:03;15.88;;;7.65;;
51292;SDS011;37377;45.186;9.778;2023-07-16T14:40:31;12.00;;;7.07;;
51292;SDS011;37377;45.186;9.778;2023-07-16T14:42:58;15.63;;;7.72;;
51292;SDS011;37377;45.186;9.778;2023-07-16T14:45:25;18.20;;;7.38;;
51292;SDS011;37377;45.186;9.778;2023-07-16T14:47:52;15.68;;;7.15;;
51292;SDS011;37377;45.186;9.778;2023-07-16T14:50:19;14.02;;;7.13;;
51292;SDS011;37377;45.186;9.778;2023-07-16T14:52:46;20.73;;;7.50;;
51292;SDS011;37377;45.186;9.778;2023-07-16T14:55:13;12.07;;;6.72;;
51292;SDS011;37377;45.186;9.778;2023-07-16T14:57:41;11.35;;;6.40;;
51292;SDS011;37377;45.186;9.778;2023-07-16T15:00:08;9.70;;;6.25;;
51292;SDS011;37377;45.186;9.778;2023-07-16T15:02:38;19.25;;;6.82;;
51292;SDS011;37377;45.186;9.778;2023-07-16T15:05:05;17.45;;;9.90;;
51292;SDS011;37377;45.186;9.778;2023-07-16T15:07:33;17.55;;;6.85;;
51292;SDS011;37377;45.186;9.778;2023-07-16T15:10:01;14.02;;;6.78;;
51292;SDS011;37377;45.186;9.778;2023-07-16T15:12:29;14.82;;;6.30;;
51292;SDS011;37377;45.186;9.778;2023-07-16T15:14:55;14.85;;;6.47;;
51292;SDS011;37377;45.186;9.778;2023-07-16T15:17:22;13.18;;;6.60;;
51292;SDS011;37377;45.186;9.778;2023-07-16T15:19:49;14.80;;;7.80;;
51292;SDS011;37377;45.186;9.778;2023-07-16T15:22:17;19.92;;;6.32;;
51292;SDS011;37377;45.186;9.778;2023-07-16T15:24:47;15.45;;;6.85;;
51292;SDS011;37377;45.186;9.778;2023-07-16T15:27:15;23.13;;;6.45;;
51292;SDS011;37377;45.186;9.778;2023-07-16T15:29:42;9.13;;;6.57;;
51292;SDS011;37377;45.186;9.778;2023-07-16T15:32:09;11.38;;;6.35;;
51292;SDS011;37377;45.186;9.778;2023-07-16T15:34:36;16.40;;;9.65;;
51292;SDS011;37377;45.186;9.778;2023-07-16T15:37:03;13.48;;;7.32;;
51292;SDS011;37377;45.186;9.778;2023-07-16T15:39:30;14.90;;;8.68;;
51292;SDS011;37377;45.186;9.778;2023-07-16T15:41:57;24.00;;;6.93;;
51292;SDS011;37377;45.186;9.778;2023-07-16T15:44:24;12.45;;;5.72;;
51292;SDS011;37377;45.186;9.778;2023-07-16T15:46:51;12.15;;;6.47;;
51292;SDS011;37377;45.186;9.778;2023-07-16T15:49:18;13.38;;;5.45;;
51292;SDS011;37377;45.186;9.778;2023-07-16T15:51:45;12.30;;;5.80;;
51292;SDS011;37377;45.186;9.778;2023-07-16T15:54:12;14.98;;;6.38;;
51292;SDS011;37377;45.186;9.778;2023-07-16T15:56:39;13.88;;;5.97;;
51292;SDS011;37377;45.186;9.778;2023-07-16T15:59:06;12.68;;;5.60;;
51292;SDS011;37377;45.186;9.778;2023-07-16T16:01:33;14.35;;;5.55;;
51292;SDS011;37377;45.186;9.778;2023-07-16T16:04:00;17.85;;;5.80;;
51292;SDS011;37377;45.186;9.778;2023-07-16T16:06:27;10.98;;;5.43;;
51292;SDS011;37377;45.186;9.778;2023-07-16T16:08:53;10.77;;;5.45;;
51292;SDS011;37377;45.186;9.778;2023-07-16T16:11:20;15.43;;;5.63;;
51292;SDS011;37377;45.186;9.778;2023-07-16T16:13:47;13.55;;;5.28;;
51292;SDS011;37377;45.186;9.778;2023-07-16T16:16:14;13.35;;;5.85;;
51292;SDS011;37377;45.186;9.778;2023-07-16T16:18:43;17.10;;;5.43;;
51292;SDS011;37377;45.186;9.778;2023-07-16T16:21:10;12.32;;;6.03;;
51292;SDS011;37377;45.186;9.778;2023-07-16T16:23:37;13.07;;;5.65;;
51292;SDS011;37377;45.186;9.778;2023-07-16T16:26:04;16.90;;;5.45;;
51292;SDS011;37377;45.186;9.778;2023-07-16T16:28:31;11.77;;;5.32;;
51292;SDS011;37377;45.186;9.778;2023-07-16T16:30:58;16.98;;;5.70;;
51292;SDS011;37377;45.186;9.778;2023-07-16T16:33:25;10.75;;;5.60;;
51292;SDS011;37377;45.186;9.778;2023-07-16T16:35:51;16.42;;;5.93;;
51292;SDS011;37377;45.186;9.778;2023-07-16T16:38:18;14.05;;;5.75;;
51292;SDS011;37377;45.186;9.778;2023-07-16T16:40:45;24.85;;;6.20;;
51292;SDS011;37377;45.186;9.778;2023-07-16T16:43:14;12.55;;;5.70;;
51292;SDS011;37377;45.186;9.778;2023-07-16T16:45:41;14.25;;;5.43;;
51292;SDS011;37377;45.186;9.778;2023-07-16T16:48:09;15.45;;;5.70;;
51292;SDS011;37377;45.186;9.778;2023-07-16T16:50:36;20.80;;;6.00;;
51292;SDS011;37377;45.186;9.778;2023-07-16T16:53:04;11.63;;;5.93;;
51292;SDS011;37377;45.186;9.778;2023-07-16T16:55:31;11.40;;;6.20;;
51292;SDS011;37377;45.186;9.778;2023-07-16T16:57:58;10.32;;;5.60;;
51292;SDS011;37377;45.186;9.778;2023-07-16T17:00:25;14.93;;;5.75;;
51292;SDS011;37377;45.186;9.778;2023-07-16T17:02:52;8.00;;;5.40;;
51292;SDS011;37377;45.186;9.778;2023-07-16T17:05:19;16.63;;;6.53;;
51292;SDS011;37377;45.186;9.778;2023-07-16T17:07:46;11.30;;;5.57;;
51292;SDS011;37377;45.186;9.778;2023-07-16T17:10:13;11.98;;;5.80;;
51292;SDS011;37377;45.186;9.778;2023-07-16T17:12:40;11.27;;;6.03;;
51292;SDS011;37377;45.186;9.778;2023-07-16T17:15:11;15.23;;;7.22;;
51292;SDS011;37377;45.186;9.778;2023-07-16T17:17:38;16.67;;;6.15;;
51292;SDS011;37377;45.186;9.778;2023-07-16T17:20:06;17.42;;;6.30;;
51292;SDS011;37377;45.186;9.778;2023-07-16T17:22:39;18.50;;;6.60;;
51292;SDS011;37377;45.186;9.778;2023-07-16T17:25:08;15.52;;;6.20;;
51292;SDS011;37377;45.186;9.778;2023-07-16T17:27:35;18.08;;;5.78;;
51292;SDS011;37377;45.186;9.778;2023-07-16T17:30:03;14.32;;;5.55;;
51292;SDS011;37377;45.186;9.778;2023-07-16T17:32:30;10.00;;;6.03;;
51292;SDS011;37377;45.186;9.778;2023-07-16T17:34:58;10.93;;;6.03;;
51292;SDS011;37377;45.186;9.778;2023-07-16T17:37:25;12.95;;;5.85;;
51292;SDS011;37377;45.186;9.778;2023-07-16T17:39:52;13.23;;;6.38;;
51292;SDS011;37377;45.186;9.778;2023-07-16T17:42:19;11.90;;;6.22;;
51292;SDS011;37377;45.186;9.778;2023-07-16T17:44:50;15.23;;;6.22;;
51292;SDS011;37377;45.186;9.778;2023-07-16T17:47:16;22.13;;;6.45;;
51292;SDS011;37377;45.186;9.778;2023-07-16T17:49:43;12.90;;;5.90;;
51292;SDS011;37377;45.186;9.778;2023-07-16T17:52:12;11.27;;;5.82;;
51292;SDS011;37377;45.186;9.778;2023-07-16T17:54:39;10.43;;;6.05;;
51292;SDS011;37377;45.186;9.778;2023-07-16T17:57:06;10.02;;;6.28;;
51292;SDS011;37377;45.186;9.778;2023-07-16T17:59:33;16.20;;;6.32;;
51292;SDS011;37377;45.186;9.778;2023-07-16T18:02:00;12.23;;;5.95;;
51292;SDS011;37377;45.186;9.778;2023-07-16T18:04:27;18.17;;;6.15;;
51292;SDS011;37377;45.186;9.778;2023-07-16T18:06:54;12.60;;;6.28;;
51292;SDS011;37377;45.186;9.778;2023-07-16T18:09:21;17.30;;;6.60;;
51292;SDS011;37377;45.186;9.778;2023-07-16T18:11:48;15.30;;;6.15;;
51292;SDS011;37377;45.186;9.778;2023-07-16T18:14:15;10.77;;;6.13;;
51292;SDS011;37377;45.186;9.778;2023-07-16T18:16:41;16.05;;;6.68;;
51292;SDS011;37377;45.186;9.778;2023-07-16T18:19:11;11.15;;;6.70;;
51292;SDS011;37377;45.186;9.778;2023-07-16T18:21:38;21.42;;;6.40;;
51292;SDS011;37377;45.186;9.778;2023-07-16T18:24:25;13.57;;;7.05;;
51292;SDS011;37377;45.186;9.778;2023-07-16T18:26:52;12.25;;;6.18;;
51292;SDS011;37377;45.186;9.778;2023-07-16T18:29:22;18.90;;;7.28;;
51292;SDS011;37377;45.186;9.778;2023-07-16T18:31:48;13.48;;;5.95;;
51292;SDS011;37377;45.186;9.778;2023-07-16T18:34:15;17.00;;;6.38;;
51292;SDS011;37377;45.186;9.778;2023-07-16T18:36:43;11.82;;;6.22;;
51292;SDS011;37377;45.186;9.778;2023-07-16T18:39:10;8.75;;;5.53;;
51292;SDS011;37377;45.186;9.778;2023-07-16T18:41:38;14.85;;;5.72;;
51292;SDS011;37377;45.186;9.778;2023-07-16T18:44:04;12.38;;;6.55;;
51292;SDS011;37377;45.186;9.778;2023-07-16T18:46:31;15.82;;;6.10;;
51292;SDS011;37377;45.186;9.778;2023-07-16T18:49:00;11.20;;;6.15;;
51292;SDS011;37377;45.186;9.778;2023-07-16T18:51:26;15.48;;;6.05;;
51292;SDS011;37377;45.186;9.778;2023-07-16T18:53:53;17.77;;;6.55;;